
<gpx xmlns="http://www.topografix.com/GPX/1/1" xmlns:gpxx="http://www.garmin.com/xmlschemas/GpxExtensions/v3" xmlns:xsi="http://www.w3.org/2001/XMLSchema-instance" version="1.1" creator="Adze - https://getadze.com/" xsi:schemaLocation="http://www.topografix.com/GPX/1/1 http://www.topografix.com/GPX/1/1/gpx.xsd http://www.garmin.com/xmlschemas/GpxExtensions/v3 http://www.garmin.com/xmlschemas/GpxExtensionsv3.xsd">
    <metadata>
        <name>Untitled Document</name>
        <link href="http://www.garmin.com"></link>
        <time>2018-03-08T07:07:03.583Z</time>
    </metadata>
    <wpt lon="101.492095" lat="14.598889">
        <ele>363.000000</ele>
        <name>Villa Paradis</name>
        <cmt>26-MAR-10 14:38:08</cmt>
        <desc>26-MAR-10 14:38:08</desc>
        <sym>Lodging</sym>
        <extensions>
            <gpxx:WaypointExtension xmlns:gpxx="http://www.garmin.com/xmlschemas/GpxExtensions/v3">
                <gpxx:DisplayMode>SymbolOnly</gpxx:DisplayMode>
            </gpxx:WaypointExtension>
        </extensions>
    </wpt>
    <wpt lon="101.426534" lat="14.606040">
        <ele>349.000000</ele>
        <name>March 2010 - Sunday water</name>
        <cmt>28-MAR-10 10:54:41</cmt>
        <desc>28-MAR-10 10:54:41</desc>
        <sym>Drinking Water</sym>
        <extensions>
            <gpxx:WaypointExtension xmlns:gpxx="http://www.garmin.com/xmlschemas/GpxExtensions/v3">
                <gpxx:DisplayMode>SymbolOnly</gpxx:DisplayMode>
            </gpxx:WaypointExtension>
        </extensions>
    </wpt>
    <trk>
        <name>March 2010 - Sunday</name>
        <extensions>
            <gpxx:TrackExtension xmlns:gpxx="http://www.garmin.com/xmlschemas/GpxExtensions/v3">
                <gpxx:DisplayColor>Green</gpxx:DisplayColor>
            </gpxx:TrackExtension>
        </extensions>
        <trkseg>
            <trkpt lon="101.491436" lat="14.599011">
                <ele>365.918945</ele>
                <time>2010-03-28T02:59:23Z</time>
            </trkpt>
            <trkpt lon="101.491723" lat="14.600863">
                <ele>369.764282</ele>
                <time>2010-03-28T03:00:26Z</time>
            </trkpt>
            <trkpt lon="101.495365" lat="14.600120">
                <ele>370.244873</ele>
                <time>2010-03-28T03:02:08Z</time>
            </trkpt>
            <trkpt lon="101.495220" lat="14.598593">
                <ele>372.648193</ele>
                <time>2010-03-28T03:02:51Z</time>
            </trkpt>
            <trkpt lon="101.495763" lat="14.597923">
                <ele>373.128906</ele>
                <time>2010-03-28T03:03:19Z</time>
            </trkpt>
            <trkpt lon="101.496540" lat="14.597447">
                <ele>373.609497</ele>
                <time>2010-03-28T03:03:47Z</time>
            </trkpt>
            <trkpt lon="101.497205" lat="14.597435">
                <ele>378.416138</ele>
                <time>2010-03-28T03:04:11Z</time>
            </trkpt>
            <trkpt lon="101.499033" lat="14.597690">
                <ele>379.858032</ele>
                <time>2010-03-28T03:05:11Z</time>
            </trkpt>
            <trkpt lon="101.500854" lat="14.597489">
                <ele>384.664795</ele>
                <time>2010-03-28T03:06:03Z</time>
            </trkpt>
            <trkpt lon="101.501666" lat="14.597658">
                <ele>397.642456</ele>
                <time>2010-03-28T03:06:24Z</time>
            </trkpt>
            <trkpt lon="101.502346" lat="14.597733">
                <ele>404.852295</ele>
                <time>2010-03-28T03:06:46Z</time>
            </trkpt>
            <trkpt lon="101.502959" lat="14.597774">
                <ele>407.255615</ele>
                <time>2010-03-28T03:07:06Z</time>
            </trkpt>
            <trkpt lon="101.503082" lat="14.598043">
                <ele>412.542847</ele>
                <time>2010-03-28T03:07:26Z</time>
            </trkpt>
            <trkpt lon="101.502987" lat="14.600122">
                <ele>413.504273</ele>
                <time>2010-03-28T03:08:10Z</time>
            </trkpt>
            <trkpt lon="101.502715" lat="14.600980">
                <ele>413.504273</ele>
                <time>2010-03-28T03:08:26Z</time>
            </trkpt>
            <trkpt lon="101.502267" lat="14.601190">
                <ele>411.581665</ele>
                <time>2010-03-28T03:08:35Z</time>
            </trkpt>
            <trkpt lon="101.502195" lat="14.601575">
                <ele>407.736328</ele>
                <time>2010-03-28T03:08:46Z</time>
            </trkpt>
            <trkpt lon="101.501936" lat="14.601769">
                <ele>406.774902</ele>
                <time>2010-03-28T03:08:53Z</time>
            </trkpt>
            <trkpt lon="101.501398" lat="14.602649">
                <ele>404.371704</ele>
                <time>2010-03-28T03:09:04Z</time>
            </trkpt>
            <trkpt lon="101.500443" lat="14.603405">
                <ele>402.929688</ele>
                <time>2010-03-28T03:09:38Z</time>
            </trkpt>
            <trkpt lon="101.497833" lat="14.606396">
                <ele>401.968506</ele>
                <time>2010-03-28T03:10:34Z</time>
            </trkpt>
            <trkpt lon="101.481657" lat="14.610260">
                <ele>366.880249</ele>
                <time>2010-03-28T03:14:02Z</time>
            </trkpt>
            <trkpt lon="101.477806" lat="14.611162">
                <ele>350.057251</ele>
                <time>2010-03-28T03:15:02Z</time>
            </trkpt>
            <trkpt lon="101.475505" lat="14.611738">
                <ele>348.615234</ele>
                <time>2010-03-28T03:15:40Z</time>
            </trkpt>
            <trkpt lon="101.471458" lat="14.612425">
                <ele>341.405273</ele>
                <time>2010-03-28T03:16:44Z</time>
            </trkpt>
            <trkpt lon="101.471088" lat="14.610867">
                <ele>340.924683</ele>
                <time>2010-03-28T03:17:10Z</time>
            </trkpt>
            <trkpt lon="101.470760" lat="14.610802">
                <ele>340.444092</ele>
                <time>2010-03-28T03:17:21Z</time>
            </trkpt>
            <trkpt lon="101.470678" lat="14.610405">
                <ele>339.963379</ele>
                <time>2010-03-28T03:17:37Z</time>
            </trkpt>
            <trkpt lon="101.470803" lat="14.610235">
                <ele>333.714722</ele>
                <time>2010-03-28T03:18:26Z</time>
            </trkpt>
            <trkpt lon="101.470503" lat="14.609561">
                <ele>332.753540</ele>
                <time>2010-03-28T03:18:44Z</time>
            </trkpt>
            <trkpt lon="101.469998" lat="14.608596">
                <ele>331.792114</ele>
                <time>2010-03-28T03:19:06Z</time>
            </trkpt>
            <trkpt lon="101.469676" lat="14.608242">
                <ele>330.350220</ele>
                <time>2010-03-28T03:19:15Z</time>
            </trkpt>
            <trkpt lon="101.468485" lat="14.608302">
                <ele>329.388916</ele>
                <time>2010-03-28T03:19:37Z</time>
            </trkpt>
            <trkpt lon="101.468290" lat="14.608067">
                <ele>328.908325</ele>
                <time>2010-03-28T03:19:43Z</time>
            </trkpt>
            <trkpt lon="101.468312" lat="14.607576">
                <ele>329.388916</ele>
                <time>2010-03-28T03:19:52Z</time>
            </trkpt>
            <trkpt lon="101.467581" lat="14.606941">
                <ele>330.350220</ele>
                <time>2010-03-28T03:20:12Z</time>
            </trkpt>
            <trkpt lon="101.466970" lat="14.606597">
                <ele>329.869507</ele>
                <time>2010-03-28T03:20:26Z</time>
            </trkpt>
            <trkpt lon="101.466147" lat="14.606692">
                <ele>329.869507</ele>
                <time>2010-03-28T03:20:42Z</time>
            </trkpt>
            <trkpt lon="101.465911" lat="14.607186">
                <ele>329.869507</ele>
                <time>2010-03-28T03:20:59Z</time>
            </trkpt>
            <trkpt lon="101.465313" lat="14.607299">
                <ele>329.388916</ele>
                <time>2010-03-28T03:21:16Z</time>
            </trkpt>
            <trkpt lon="101.465277" lat="14.607421">
                <ele>329.869507</ele>
                <time>2010-03-28T03:21:21Z</time>
            </trkpt>
            <trkpt lon="101.465455" lat="14.607592">
                <ele>332.272827</ele>
                <time>2010-03-28T03:21:37Z</time>
            </trkpt>
            <trkpt lon="101.465939" lat="14.607668">
                <ele>332.753540</ele>
                <time>2010-03-28T03:22:24Z</time>
            </trkpt>
            <trkpt lon="101.466033" lat="14.607844">
                <ele>331.311523</ele>
                <time>2010-03-28T03:22:31Z</time>
            </trkpt>
            <trkpt lon="101.466059" lat="14.608408">
                <ele>332.272827</ele>
                <time>2010-03-28T03:22:48Z</time>
            </trkpt>
            <trkpt lon="101.466468" lat="14.609071">
                <ele>332.753540</ele>
                <time>2010-03-28T03:23:10Z</time>
            </trkpt>
            <trkpt lon="101.466257" lat="14.609840">
                <ele>332.753540</ele>
                <time>2010-03-28T03:23:35Z</time>
            </trkpt>
            <trkpt lon="101.466080" lat="14.610346">
                <ele>331.311523</ele>
                <time>2010-03-28T03:23:49Z</time>
            </trkpt>
            <trkpt lon="101.465514" lat="14.611066">
                <ele>329.869507</ele>
                <time>2010-03-28T03:24:14Z</time>
            </trkpt>
            <trkpt lon="101.465290" lat="14.611577">
                <ele>328.908325</ele>
                <time>2010-03-28T03:24:28Z</time>
            </trkpt>
            <trkpt lon="101.465007" lat="14.611863">
                <ele>327.946777</ele>
                <time>2010-03-28T03:24:41Z</time>
            </trkpt>
            <trkpt lon="101.464773" lat="14.611714">
                <ele>327.946777</ele>
                <time>2010-03-28T03:24:49Z</time>
            </trkpt>
            <trkpt lon="101.464493" lat="14.611795">
                <ele>327.466186</ele>
                <time>2010-03-28T03:24:59Z</time>
            </trkpt>
            <trkpt lon="101.464255" lat="14.612278">
                <ele>329.869507</ele>
                <time>2010-03-28T03:25:15Z</time>
            </trkpt>
            <trkpt lon="101.464038" lat="14.612662">
                <ele>328.908325</ele>
                <time>2010-03-28T03:25:40Z</time>
            </trkpt>
            <trkpt lon="101.463883" lat="14.612684">
                <ele>327.946777</ele>
                <time>2010-03-28T03:25:52Z</time>
            </trkpt>
            <trkpt lon="101.463679" lat="14.611898">
                <ele>332.272827</ele>
                <time>2010-03-28T03:26:42Z</time>
            </trkpt>
            <trkpt lon="101.463190" lat="14.611403">
                <ele>330.830933</ele>
                <time>2010-03-28T03:27:00Z</time>
            </trkpt>
            <trkpt lon="101.463183" lat="14.610983">
                <ele>330.350220</ele>
                <time>2010-03-28T03:27:10Z</time>
            </trkpt>
            <trkpt lon="101.463499" lat="14.609702">
                <ele>330.350220</ele>
                <time>2010-03-28T03:27:37Z</time>
            </trkpt>
            <trkpt lon="101.463884" lat="14.606504">
                <ele>334.195435</ele>
                <time>2010-03-28T03:29:05Z</time>
            </trkpt>
            <trkpt lon="101.462385" lat="14.606124">
                <ele>332.272827</ele>
                <time>2010-03-28T03:29:36Z</time>
            </trkpt>
            <trkpt lon="101.461322" lat="14.606044">
                <ele>330.350220</ele>
                <time>2010-03-28T03:29:53Z</time>
            </trkpt>
            <trkpt lon="101.459171" lat="14.606617">
                <ele>328.908325</ele>
                <time>2010-03-28T03:30:27Z</time>
            </trkpt>
            <trkpt lon="101.455772" lat="14.607141">
                <ele>328.908325</ele>
                <time>2010-03-28T03:31:24Z</time>
            </trkpt>
            <trkpt lon="101.456112" lat="14.607020">
                <ele>330.350220</ele>
                <time>2010-03-28T03:31:36Z</time>
            </trkpt>
            <trkpt lon="101.456757" lat="14.605295">
                <ele>332.753540</ele>
                <time>2010-03-28T03:32:12Z</time>
            </trkpt>
            <trkpt lon="101.456866" lat="14.604461">
                <ele>331.792114</ele>
                <time>2010-03-28T03:32:27Z</time>
            </trkpt>
            <trkpt lon="101.456765" lat="14.604049">
                <ele>331.311523</ele>
                <time>2010-03-28T03:32:35Z</time>
            </trkpt>
            <trkpt lon="101.456392" lat="14.603950">
                <ele>331.792114</ele>
                <time>2010-03-28T03:32:47Z</time>
            </trkpt>
            <trkpt lon="101.455978" lat="14.604004">
                <ele>330.830933</ele>
                <time>2010-03-28T03:32:57Z</time>
            </trkpt>
            <trkpt lon="101.455998" lat="14.603024">
                <ele>332.272827</ele>
                <time>2010-03-28T03:33:19Z</time>
            </trkpt>
            <trkpt lon="101.455805" lat="14.602093">
                <ele>332.753540</ele>
                <time>2010-03-28T03:33:38Z</time>
            </trkpt>
            <trkpt lon="101.455617" lat="14.602017">
                <ele>332.753540</ele>
                <time>2010-03-28T03:33:43Z</time>
            </trkpt>
            <trkpt lon="101.453771" lat="14.602433">
                <ele>330.350220</ele>
                <time>2010-03-28T03:34:20Z</time>
            </trkpt>
            <trkpt lon="101.453632" lat="14.604441">
                <ele>330.350220</ele>
                <time>2010-03-28T03:35:01Z</time>
            </trkpt>
            <trkpt lon="101.453411" lat="14.604873">
                <ele>330.830933</ele>
                <time>2010-03-28T03:35:12Z</time>
            </trkpt>
            <trkpt lon="101.452605" lat="14.604853">
                <ele>328.908325</ele>
                <time>2010-03-28T03:35:27Z</time>
            </trkpt>
            <trkpt lon="101.452381" lat="14.604679">
                <ele>329.388916</ele>
                <time>2010-03-28T03:35:34Z</time>
            </trkpt>
            <trkpt lon="101.452241" lat="14.604642">
                <ele>328.427612</ele>
                <time>2010-03-28T03:35:38Z</time>
            </trkpt>
            <trkpt lon="101.452168" lat="14.604670">
                <ele>331.792114</ele>
                <time>2010-03-28T03:36:23Z</time>
            </trkpt>
            <trkpt lon="101.451662" lat="14.604758">
                <ele>333.234131</ele>
                <time>2010-03-28T03:36:37Z</time>
            </trkpt>
            <trkpt lon="101.450765" lat="14.605005">
                <ele>333.234131</ele>
                <time>2010-03-28T03:36:55Z</time>
            </trkpt>
            <trkpt lon="101.450686" lat="14.605348">
                <ele>331.792114</ele>
                <time>2010-03-28T03:37:03Z</time>
            </trkpt>
            <trkpt lon="101.451089" lat="14.606725">
                <ele>329.869507</ele>
                <time>2010-03-28T03:37:29Z</time>
            </trkpt>
            <trkpt lon="101.450991" lat="14.606957">
                <ele>329.869507</ele>
                <time>2010-03-28T03:37:37Z</time>
            </trkpt>
            <trkpt lon="101.450352" lat="14.606945">
                <ele>329.388916</ele>
                <time>2010-03-28T03:37:51Z</time>
            </trkpt>
            <trkpt lon="101.450248" lat="14.606808">
                <ele>329.869507</ele>
                <time>2010-03-28T03:37:56Z</time>
            </trkpt>
            <trkpt lon="101.449988" lat="14.605424">
                <ele>328.908325</ele>
                <time>2010-03-28T03:38:26Z</time>
            </trkpt>
            <trkpt lon="101.449843" lat="14.605303">
                <ele>328.908325</ele>
                <time>2010-03-28T03:38:31Z</time>
            </trkpt>
            <trkpt lon="101.447887" lat="14.605207">
                <ele>332.272827</ele>
                <time>2010-03-28T03:39:19Z</time>
            </trkpt>
            <trkpt lon="101.447375" lat="14.605360">
                <ele>330.830933</ele>
                <time>2010-03-28T03:39:35Z</time>
            </trkpt>
            <trkpt lon="101.447395" lat="14.605562">
                <ele>331.792114</ele>
                <time>2010-03-28T03:39:40Z</time>
            </trkpt>
            <trkpt lon="101.447578" lat="14.607471">
                <ele>328.908325</ele>
                <time>2010-03-28T03:40:25Z</time>
            </trkpt>
            <trkpt lon="101.447012" lat="14.607771">
                <ele>328.908325</ele>
                <time>2010-03-28T03:40:40Z</time>
            </trkpt>
            <trkpt lon="101.445942" lat="14.608017">
                <ele>328.908325</ele>
                <time>2010-03-28T03:41:05Z</time>
            </trkpt>
            <trkpt lon="101.444801" lat="14.608121">
                <ele>328.427612</ele>
                <time>2010-03-28T03:41:33Z</time>
            </trkpt>
            <trkpt lon="101.444866" lat="14.605949">
                <ele>329.388916</ele>
                <time>2010-03-28T03:42:17Z</time>
            </trkpt>
            <trkpt lon="101.444484" lat="14.604947">
                <ele>329.869507</ele>
                <time>2010-03-28T03:42:40Z</time>
            </trkpt>
            <trkpt lon="101.444158" lat="14.603526">
                <ele>329.388916</ele>
                <time>2010-03-28T03:43:17Z</time>
            </trkpt>
            <trkpt lon="101.444122" lat="14.602331">
                <ele>330.830933</ele>
                <time>2010-03-28T03:43:40Z</time>
            </trkpt>
            <trkpt lon="101.444295" lat="14.601224">
                <ele>331.792114</ele>
                <time>2010-03-28T03:44:02Z</time>
            </trkpt>
            <trkpt lon="101.444050" lat="14.600995">
                <ele>332.753540</ele>
                <time>2010-03-28T03:44:10Z</time>
            </trkpt>
            <trkpt lon="101.443395" lat="14.600992">
                <ele>332.753540</ele>
                <time>2010-03-28T03:44:23Z</time>
            </trkpt>
            <trkpt lon="101.443295" lat="14.600871">
                <ele>333.234131</ele>
                <time>2010-03-28T03:44:28Z</time>
            </trkpt>
            <trkpt lon="101.443545" lat="14.599880">
                <ele>332.753540</ele>
                <time>2010-03-28T03:44:50Z</time>
            </trkpt>
            <trkpt lon="101.443464" lat="14.599189">
                <ele>333.714722</ele>
                <time>2010-03-28T03:45:04Z</time>
            </trkpt>
            <trkpt lon="101.443086" lat="14.599019">
                <ele>333.714722</ele>
                <time>2010-03-28T03:45:14Z</time>
            </trkpt>
            <trkpt lon="101.442383" lat="14.599239">
                <ele>333.234131</ele>
                <time>2010-03-28T03:45:28Z</time>
            </trkpt>
            <trkpt lon="101.440259" lat="14.599386">
                <ele>338.521484</ele>
                <time>2010-03-28T03:46:08Z</time>
            </trkpt>
            <trkpt lon="101.439449" lat="14.599283">
                <ele>339.963379</ele>
                <time>2010-03-28T03:46:24Z</time>
            </trkpt>
            <trkpt lon="101.437730" lat="14.598616">
                <ele>342.847290</ele>
                <time>2010-03-28T03:47:05Z</time>
            </trkpt>
            <trkpt lon="101.437041" lat="14.598538">
                <ele>345.731323</ele>
                <time>2010-03-28T03:47:24Z</time>
            </trkpt>
            <trkpt lon="101.436067" lat="14.598863">
                <ele>347.173218</ele>
                <time>2010-03-28T03:47:50Z</time>
            </trkpt>
            <trkpt lon="101.436218" lat="14.600185">
                <ele>343.808594</ele>
                <time>2010-03-28T03:48:18Z</time>
            </trkpt>
            <trkpt lon="101.436104" lat="14.600232">
                <ele>343.808594</ele>
                <time>2010-03-28T03:48:24Z</time>
            </trkpt>
            <trkpt lon="101.435035" lat="14.600344">
                <ele>339.963379</ele>
                <time>2010-03-28T03:49:07Z</time>
            </trkpt>
            <trkpt lon="101.434850" lat="14.600623">
                <ele>339.963379</ele>
                <time>2010-03-28T03:49:16Z</time>
            </trkpt>
            <trkpt lon="101.435195" lat="14.604267">
                <ele>338.040772</ele>
                <time>2010-03-28T03:50:31Z</time>
            </trkpt>
            <trkpt lon="101.435614" lat="14.605410">
                <ele>337.079468</ele>
                <time>2010-03-28T03:50:54Z</time>
            </trkpt>
            <trkpt lon="101.430694" lat="14.605388">
                <ele>339.002075</ele>
                <time>2010-03-28T03:52:33Z</time>
            </trkpt>
            <trkpt lon="101.428551" lat="14.605142">
                <ele>341.405273</ele>
                <time>2010-03-28T03:53:10Z</time>
            </trkpt>
            <trkpt lon="101.427636" lat="14.605239">
                <ele>340.924683</ele>
                <time>2010-03-28T03:53:27Z</time>
            </trkpt>
            <trkpt lon="101.426949" lat="14.605619">
                <ele>344.770019</ele>
                <time>2010-03-28T03:53:43Z</time>
            </trkpt>
            <trkpt lon="101.426541" lat="14.606009">
                <ele>347.653931</ele>
                <time>2010-03-28T03:55:02Z</time>
            </trkpt>
            <trkpt lon="101.426703" lat="14.606150">
                <ele>344.289429</ele>
                <time>2010-03-28T03:56:39Z</time>
            </trkpt>
            <trkpt lon="101.426594" lat="14.606050">
                <ele>346.692627</ele>
                <time>2010-03-28T03:58:42Z</time>
            </trkpt>
            <trkpt lon="101.426678" lat="14.606081">
                <ele>346.212036</ele>
                <time>2010-03-28T03:59:39Z</time>
            </trkpt>
            <trkpt lon="101.426619" lat="14.605975">
                <ele>345.250610</ele>
                <time>2010-03-28T04:00:00Z</time>
            </trkpt>
            <trkpt lon="101.426525" lat="14.605986">
                <ele>353.421875</ele>
                <time>2010-03-28T04:01:27Z</time>
            </trkpt>
            <trkpt lon="101.426648" lat="14.606108">
                <ele>351.018433</ele>
                <time>2010-03-28T04:07:55Z</time>
            </trkpt>
            <trkpt lon="101.426545" lat="14.605964">
                <ele>349.576538</ele>
                <time>2010-03-28T04:09:15Z</time>
            </trkpt>
            <trkpt lon="101.426558" lat="14.605948">
                <ele>345.731323</ele>
                <time>2010-03-28T04:09:34Z</time>
            </trkpt>
            <trkpt lon="101.426320" lat="14.606064">
                <ele>343.808594</ele>
                <time>2010-03-28T04:10:26Z</time>
            </trkpt>
            <trkpt lon="101.423754" lat="14.608087">
                <ele>345.250610</ele>
                <time>2010-03-28T04:11:36Z</time>
            </trkpt>
            <trkpt lon="101.423206" lat="14.608341">
                <ele>345.250610</ele>
                <time>2010-03-28T04:11:48Z</time>
            </trkpt>
            <trkpt lon="101.422202" lat="14.608195">
                <ele>347.653931</ele>
                <time>2010-03-28T04:12:09Z</time>
            </trkpt>
            <trkpt lon="101.421262" lat="14.608387">
                <ele>348.615234</ele>
                <time>2010-03-28T04:12:27Z</time>
            </trkpt>
            <trkpt lon="101.420174" lat="14.608386">
                <ele>350.537842</ele>
                <time>2010-03-28T04:12:47Z</time>
            </trkpt>
            <trkpt lon="101.419404" lat="14.608082">
                <ele>351.499145</ele>
                <time>2010-03-28T04:13:05Z</time>
            </trkpt>
            <trkpt lon="101.419418" lat="14.607093">
                <ele>358.228394</ele>
                <time>2010-03-28T04:13:49Z</time>
            </trkpt>
            <trkpt lon="101.418440" lat="14.605197">
                <ele>374.570801</ele>
                <time>2010-03-28T04:15:12Z</time>
            </trkpt>
            <trkpt lon="101.418355" lat="14.604508">
                <ele>377.935425</ele>
                <time>2010-03-28T04:15:33Z</time>
            </trkpt>
            <trkpt lon="101.418468" lat="14.603841">
                <ele>380.338745</ele>
                <time>2010-03-28T04:15:53Z</time>
            </trkpt>
            <trkpt lon="101.419188" lat="14.601917">
                <ele>384.664795</ele>
                <time>2010-03-28T04:17:04Z</time>
            </trkpt>
            <trkpt lon="101.419649" lat="14.601546">
                <ele>384.184082</ele>
                <time>2010-03-28T04:17:20Z</time>
            </trkpt>
            <trkpt lon="101.420016" lat="14.601432">
                <ele>384.184082</ele>
                <time>2010-03-28T04:17:33Z</time>
            </trkpt>
            <trkpt lon="101.421537" lat="14.601437">
                <ele>374.090088</ele>
                <time>2010-03-28T04:18:02Z</time>
            </trkpt>
            <trkpt lon="101.421671" lat="14.600753">
                <ele>374.570801</ele>
                <time>2010-03-28T04:18:21Z</time>
            </trkpt>
            <trkpt lon="101.425216" lat="14.600386">
                <ele>361.112427</ele>
                <time>2010-03-28T04:19:30Z</time>
            </trkpt>
            <trkpt lon="101.424534" lat="14.597409">
                <ele>365.918945</ele>
                <time>2010-03-28T04:21:16Z</time>
            </trkpt>
            <trkpt lon="101.424603" lat="14.597036">
                <ele>365.438355</ele>
                <time>2010-03-28T04:21:32Z</time>
            </trkpt>
            <trkpt lon="101.425645" lat="14.597085">
                <ele>362.073731</ele>
                <time>2010-03-28T04:21:55Z</time>
            </trkpt>
            <trkpt lon="101.425546" lat="14.596732">
                <ele>366.880249</ele>
                <time>2010-03-28T04:22:53Z</time>
            </trkpt>
            <trkpt lon="101.425572" lat="14.596705">
                <ele>363.996338</ele>
                <time>2010-03-28T04:24:05Z</time>
            </trkpt>
            <trkpt lon="101.425566" lat="14.596670">
                <ele>358.228394</ele>
                <time>2010-03-28T04:25:48Z</time>
            </trkpt>
            <trkpt lon="101.425348" lat="14.595874">
                <ele>366.399536</ele>
                <time>2010-03-28T04:26:26Z</time>
            </trkpt>
            <trkpt lon="101.425132" lat="14.595403">
                <ele>370.725586</ele>
                <time>2010-03-28T04:26:48Z</time>
            </trkpt>
            <trkpt lon="101.424819" lat="14.595143">
                <ele>373.128906</ele>
                <time>2010-03-28T04:27:04Z</time>
            </trkpt>
            <trkpt lon="101.424874" lat="14.594650">
                <ele>376.493530</ele>
                <time>2010-03-28T04:27:29Z</time>
            </trkpt>
            <trkpt lon="101.424276" lat="14.594163">
                <ele>382.742065</ele>
                <time>2010-03-28T04:28:06Z</time>
            </trkpt>
            <trkpt lon="101.424796" lat="14.593552">
                <ele>386.587402</ele>
                <time>2010-03-28T04:28:37Z</time>
            </trkpt>
            <trkpt lon="101.425196" lat="14.593151">
                <ele>388.029297</ele>
                <time>2010-03-28T04:28:55Z</time>
            </trkpt>
            <trkpt lon="101.426061" lat="14.592121">
                <ele>388.510010</ele>
                <time>2010-03-28T04:29:35Z</time>
            </trkpt>
            <trkpt lon="101.426509" lat="14.589831">
                <ele>388.990601</ele>
                <time>2010-03-28T04:30:41Z</time>
            </trkpt>
            <trkpt lon="101.426797" lat="14.589477">
                <ele>391.874512</ele>
                <time>2010-03-28T04:30:53Z</time>
            </trkpt>
            <trkpt lon="101.426437" lat="14.588843">
                <ele>395.239136</ele>
                <time>2010-03-28T04:31:14Z</time>
            </trkpt>
            <trkpt lon="101.426162" lat="14.586826">
                <ele>404.371704</ele>
                <time>2010-03-28T04:32:42Z</time>
            </trkpt>
            <trkpt lon="101.426034" lat="14.586502">
                <ele>406.774902</ele>
                <time>2010-03-28T04:33:03Z</time>
            </trkpt>
            <trkpt lon="101.425647" lat="14.586321">
                <ele>412.542847</ele>
                <time>2010-03-28T04:33:22Z</time>
            </trkpt>
            <trkpt lon="101.423523" lat="14.586097">
                <ele>413.023560</ele>
                <time>2010-03-28T04:33:57Z</time>
            </trkpt>
            <trkpt lon="101.423079" lat="14.585796">
                <ele>413.504273</ele>
                <time>2010-03-28T04:34:16Z</time>
            </trkpt>
            <trkpt lon="101.422585" lat="14.585769">
                <ele>410.139648</ele>
                <time>2010-03-28T04:34:28Z</time>
            </trkpt>
            <trkpt lon="101.422077" lat="14.585187">
                <ele>417.830200</ele>
                <time>2010-03-28T04:34:51Z</time>
            </trkpt>
            <trkpt lon="101.422160" lat="14.585118">
                <ele>420.714111</ele>
                <time>2010-03-28T04:35:14Z</time>
            </trkpt>
            <trkpt lon="101.422624" lat="14.584243">
                <ele>430.807983</ele>
                <time>2010-03-28T04:37:17Z</time>
            </trkpt>
            <trkpt lon="101.422791" lat="14.584167">
                <ele>441.382446</ele>
                <time>2010-03-28T04:37:57Z</time>
            </trkpt>
            <trkpt lon="101.423046" lat="14.583989">
                <ele>440.901856</ele>
                <time>2010-03-28T04:38:34Z</time>
            </trkpt>
            <trkpt lon="101.423211" lat="14.583633">
                <ele>439.940430</ele>
                <time>2010-03-28T04:38:48Z</time>
            </trkpt>
            <trkpt lon="101.423445" lat="14.583290">
                <ele>431.769165</ele>
                <time>2010-03-28T04:39:00Z</time>
            </trkpt>
            <trkpt lon="101.424318" lat="14.582964">
                <ele>433.691894</ele>
                <time>2010-03-28T04:39:44Z</time>
            </trkpt>
            <trkpt lon="101.424616" lat="14.582709">
                <ele>426.962769</ele>
                <time>2010-03-28T04:40:06Z</time>
            </trkpt>
            <trkpt lon="101.424822" lat="14.582726">
                <ele>429.846558</ele>
                <time>2010-03-28T04:40:46Z</time>
            </trkpt>
            <trkpt lon="101.425021" lat="14.582765">
                <ele>422.636719</ele>
                <time>2010-03-28T04:41:20Z</time>
            </trkpt>
            <trkpt lon="101.425530" lat="14.582416">
                <ele>424.078735</ele>
                <time>2010-03-28T04:41:56Z</time>
            </trkpt>
            <trkpt lon="101.425734" lat="14.582256">
                <ele>420.714111</ele>
                <time>2010-03-28T04:42:11Z</time>
            </trkpt>
            <trkpt lon="101.426090" lat="14.581774">
                <ele>423.117432</ele>
                <time>2010-03-28T04:42:43Z</time>
            </trkpt>
            <trkpt lon="101.426463" lat="14.581766">
                <ele>424.559448</ele>
                <time>2010-03-28T04:43:08Z</time>
            </trkpt>
            <trkpt lon="101.426658" lat="14.581517">
                <ele>431.769165</ele>
                <time>2010-03-28T04:43:25Z</time>
            </trkpt>
            <trkpt lon="101.427039" lat="14.581189">
                <ele>424.078735</ele>
                <time>2010-03-28T04:43:45Z</time>
            </trkpt>
            <trkpt lon="101.427178" lat="14.581240">
                <ele>423.117432</ele>
                <time>2010-03-28T04:43:52Z</time>
            </trkpt>
            <trkpt lon="101.428521" lat="14.580502">
                <ele>413.023560</ele>
                <time>2010-03-28T04:44:53Z</time>
            </trkpt>
            <trkpt lon="101.428676" lat="14.580332">
                <ele>410.139648</ele>
                <time>2010-03-28T04:45:01Z</time>
            </trkpt>
            <trkpt lon="101.428869" lat="14.580303">
                <ele>404.852295</ele>
                <time>2010-03-28T04:45:09Z</time>
            </trkpt>
            <trkpt lon="101.429143" lat="14.580121">
                <ele>401.968506</ele>
                <time>2010-03-28T04:45:23Z</time>
            </trkpt>
            <trkpt lon="101.429165" lat="14.580047">
                <ele>409.178345</ele>
                <time>2010-03-28T04:45:29Z</time>
            </trkpt>
            <trkpt lon="101.429174" lat="14.579939">
                <ele>410.139648</ele>
                <time>2010-03-28T04:45:35Z</time>
            </trkpt>
            <trkpt lon="101.430282" lat="14.579818">
                <ele>401.487793</ele>
                <time>2010-03-28T04:46:16Z</time>
            </trkpt>
            <trkpt lon="101.431324" lat="14.580206">
                <ele>398.603760</ele>
                <time>2010-03-28T04:47:02Z</time>
            </trkpt>
            <trkpt lon="101.431387" lat="14.580227">
                <ele>398.123169</ele>
                <time>2010-03-28T04:47:04Z</time>
            </trkpt>
            <trkpt lon="101.432353" lat="14.579505">
                <ele>388.510010</ele>
                <time>2010-03-28T04:47:42Z</time>
            </trkpt>
            <trkpt lon="101.436344" lat="14.577707">
                <ele>376.012817</ele>
                <time>2010-03-28T04:49:03Z</time>
            </trkpt>
            <trkpt lon="101.436394" lat="14.579694">
                <ele>370.244873</ele>
                <time>2010-03-28T04:49:42Z</time>
            </trkpt>
            <trkpt lon="101.436526" lat="14.580236">
                <ele>368.802978</ele>
                <time>2010-03-28T04:49:52Z</time>
            </trkpt>
            <trkpt lon="101.436417" lat="14.580977">
                <ele>368.802978</ele>
                <time>2010-03-28T04:50:06Z</time>
            </trkpt>
            <trkpt lon="101.436658" lat="14.581971">
                <ele>368.322266</ele>
                <time>2010-03-28T04:50:25Z</time>
            </trkpt>
            <trkpt lon="101.436861" lat="14.582212">
                <ele>368.322266</ele>
                <time>2010-03-28T04:50:31Z</time>
            </trkpt>
            <trkpt lon="101.437485" lat="14.582567">
                <ele>368.802978</ele>
                <time>2010-03-28T04:50:44Z</time>
            </trkpt>
            <trkpt lon="101.438453" lat="14.583478">
                <ele>368.802978</ele>
                <time>2010-03-28T04:51:10Z</time>
            </trkpt>
            <trkpt lon="101.438721" lat="14.583185">
                <ele>368.322266</ele>
                <time>2010-03-28T04:51:20Z</time>
            </trkpt>
            <trkpt lon="101.439008" lat="14.583078">
                <ele>368.802978</ele>
                <time>2010-03-28T04:51:27Z</time>
            </trkpt>
            <trkpt lon="101.439595" lat="14.583143">
                <ele>370.725586</ele>
                <time>2010-03-28T04:51:43Z</time>
            </trkpt>
            <trkpt lon="101.439894" lat="14.582980">
                <ele>373.609497</ele>
                <time>2010-03-28T04:51:57Z</time>
            </trkpt>
            <trkpt lon="101.440740" lat="14.582296">
                <ele>381.300049</ele>
                <time>2010-03-28T04:52:53Z</time>
            </trkpt>
            <trkpt lon="101.440880" lat="14.581901">
                <ele>383.222656</ele>
                <time>2010-03-28T04:53:13Z</time>
            </trkpt>
            <trkpt lon="101.441074" lat="14.581406">
                <ele>383.703247</ele>
                <time>2010-03-28T04:53:31Z</time>
            </trkpt>
            <trkpt lon="101.441827" lat="14.580861">
                <ele>378.896851</ele>
                <time>2010-03-28T04:53:51Z</time>
            </trkpt>
            <trkpt lon="101.443342" lat="14.580881">
                <ele>373.128906</ele>
                <time>2010-03-28T04:54:16Z</time>
            </trkpt>
            <trkpt lon="101.445024" lat="14.580004">
                <ele>363.996338</ele>
                <time>2010-03-28T04:54:41Z</time>
            </trkpt>
            <trkpt lon="101.445235" lat="14.580033">
                <ele>362.554321</ele>
                <time>2010-03-28T04:54:47Z</time>
            </trkpt>
            <trkpt lon="101.448086" lat="14.586034">
                <ele>344.770019</ele>
                <time>2010-03-28T04:56:41Z</time>
            </trkpt>
            <trkpt lon="101.448555" lat="14.586131">
                <ele>343.327881</ele>
                <time>2010-03-28T04:56:50Z</time>
            </trkpt>
            <trkpt lon="101.449263" lat="14.585768">
                <ele>343.327881</ele>
                <time>2010-03-28T04:57:09Z</time>
            </trkpt>
            <trkpt lon="101.448371" lat="14.586218">
                <ele>344.289429</ele>
                <time>2010-03-28T04:57:40Z</time>
            </trkpt>
            <trkpt lon="101.448219" lat="14.586507">
                <ele>344.289429</ele>
                <time>2010-03-28T04:57:49Z</time>
            </trkpt>
            <trkpt lon="101.448688" lat="14.587317">
                <ele>344.289429</ele>
                <time>2010-03-28T04:58:09Z</time>
            </trkpt>
            <trkpt lon="101.449006" lat="14.587956">
                <ele>340.444092</ele>
                <time>2010-03-28T04:58:31Z</time>
            </trkpt>
            <trkpt lon="101.449855" lat="14.588078">
                <ele>339.482666</ele>
                <time>2010-03-28T04:59:05Z</time>
            </trkpt>
            <trkpt lon="101.450241" lat="14.591324">
                <ele>336.118164</ele>
                <time>2010-03-28T05:00:29Z</time>
            </trkpt>
            <trkpt lon="101.450696" lat="14.591347">
                <ele>335.637329</ele>
                <time>2010-03-28T05:00:41Z</time>
            </trkpt>
            <trkpt lon="101.450840" lat="14.591581">
                <ele>335.637329</ele>
                <time>2010-03-28T05:00:48Z</time>
            </trkpt>
            <trkpt lon="101.450875" lat="14.592601">
                <ele>335.156738</ele>
                <time>2010-03-28T05:01:08Z</time>
            </trkpt>
            <trkpt lon="101.451118" lat="14.592705">
                <ele>334.676148</ele>
                <time>2010-03-28T05:01:16Z</time>
            </trkpt>
            <trkpt lon="101.452160" lat="14.592662">
                <ele>334.195435</ele>
                <time>2010-03-28T05:01:37Z</time>
            </trkpt>
            <trkpt lon="101.452431" lat="14.592650">
                <ele>333.234131</ele>
                <time>2010-03-28T05:01:43Z</time>
            </trkpt>
            <trkpt lon="101.452773" lat="14.592453">
                <ele>335.156738</ele>
                <time>2010-03-28T05:01:55Z</time>
            </trkpt>
            <trkpt lon="101.453695" lat="14.592370">
                <ele>336.118164</ele>
                <time>2010-03-28T05:02:19Z</time>
            </trkpt>
            <trkpt lon="101.453885" lat="14.592266">
                <ele>335.637329</ele>
                <time>2010-03-28T05:02:26Z</time>
            </trkpt>
            <trkpt lon="101.453940" lat="14.592371">
                <ele>336.118164</ele>
                <time>2010-03-28T05:02:30Z</time>
            </trkpt>
            <trkpt lon="101.453919" lat="14.596022">
                <ele>331.311523</ele>
                <time>2010-03-28T05:03:36Z</time>
            </trkpt>
            <trkpt lon="101.454335" lat="14.596909">
                <ele>330.830933</ele>
                <time>2010-03-28T05:03:53Z</time>
            </trkpt>
            <trkpt lon="101.455124" lat="14.597907">
                <ele>330.350220</ele>
                <time>2010-03-28T05:04:16Z</time>
            </trkpt>
            <trkpt lon="101.457470" lat="14.600833">
                <ele>327.466186</ele>
                <time>2010-03-28T05:05:24Z</time>
            </trkpt>
            <trkpt lon="101.458038" lat="14.601351">
                <ele>326.024170</ele>
                <time>2010-03-28T05:05:38Z</time>
            </trkpt>
            <trkpt lon="101.460178" lat="14.601724">
                <ele>327.946777</ele>
                <time>2010-03-28T05:06:19Z</time>
            </trkpt>
            <trkpt lon="101.461970" lat="14.601395">
                <ele>328.908325</ele>
                <time>2010-03-28T05:06:56Z</time>
            </trkpt>
            <trkpt lon="101.462853" lat="14.601392">
                <ele>331.792114</ele>
                <time>2010-03-28T05:07:15Z</time>
            </trkpt>
            <trkpt lon="101.467121" lat="14.602056">
                <ele>339.002075</ele>
                <time>2010-03-28T05:08:55Z</time>
            </trkpt>
            <trkpt lon="101.468213" lat="14.602685">
                <ele>341.405273</ele>
                <time>2010-03-28T05:09:25Z</time>
            </trkpt>
            <trkpt lon="101.468588" lat="14.602107">
                <ele>340.444092</ele>
                <time>2010-03-28T05:09:44Z</time>
            </trkpt>
            <trkpt lon="101.472531" lat="14.602120">
                <ele>342.366699</ele>
                <time>2010-03-28T05:10:58Z</time>
            </trkpt>
            <trkpt lon="101.473022" lat="14.602200">
                <ele>338.040772</ele>
                <time>2010-03-28T05:11:26Z</time>
            </trkpt>
            <trkpt lon="101.473360" lat="14.602201">
                <ele>334.676148</ele>
                <time>2010-03-28T05:11:40Z</time>
            </trkpt>
            <trkpt lon="101.474234" lat="14.602040">
                <ele>334.676148</ele>
                <time>2010-03-28T05:17:30Z</time>
            </trkpt>
            <trkpt lon="101.474085" lat="14.601530">
                <ele>334.676148</ele>
                <time>2010-03-28T05:17:41Z</time>
            </trkpt>
            <trkpt lon="101.474252" lat="14.601257">
                <ele>334.676148</ele>
                <time>2010-03-28T05:17:48Z</time>
            </trkpt>
            <trkpt lon="101.474166" lat="14.600704">
                <ele>335.637329</ele>
                <time>2010-03-28T05:18:03Z</time>
            </trkpt>
            <trkpt lon="101.474187" lat="14.600563">
                <ele>335.156738</ele>
                <time>2010-03-28T05:18:14Z</time>
            </trkpt>
            <trkpt lon="101.474521" lat="14.600398">
                <ele>338.040772</ele>
                <time>2010-03-28T05:20:28Z</time>
            </trkpt>
            <trkpt lon="101.475044" lat="14.600521">
                <ele>337.079468</ele>
                <time>2010-03-28T05:20:48Z</time>
            </trkpt>
            <trkpt lon="101.475359" lat="14.600395">
                <ele>336.598877</ele>
                <time>2010-03-28T05:21:40Z</time>
            </trkpt>
            <trkpt lon="101.476043" lat="14.600456">
                <ele>336.598877</ele>
                <time>2010-03-28T05:22:06Z</time>
            </trkpt>
            <trkpt lon="101.476334" lat="14.600178">
                <ele>337.079468</ele>
                <time>2010-03-28T05:22:19Z</time>
            </trkpt>
            <trkpt lon="101.478662" lat="14.600326">
                <ele>340.444092</ele>
                <time>2010-03-28T05:23:19Z</time>
            </trkpt>
            <trkpt lon="101.479255" lat="14.600341">
                <ele>340.444092</ele>
                <time>2010-03-28T05:23:34Z</time>
            </trkpt>
            <trkpt lon="101.479702" lat="14.602267">
                <ele>343.327881</ele>
                <time>2010-03-28T05:24:26Z</time>
            </trkpt>
            <trkpt lon="101.479966" lat="14.603304">
                <ele>341.885986</ele>
                <time>2010-03-28T05:24:46Z</time>
            </trkpt>
            <trkpt lon="101.480067" lat="14.603623">
                <ele>341.885986</ele>
                <time>2010-03-28T05:24:53Z</time>
            </trkpt>
            <trkpt lon="101.480289" lat="14.603665">
                <ele>341.405273</ele>
                <time>2010-03-28T05:24:58Z</time>
            </trkpt>
            <trkpt lon="101.491923" lat="14.600844">
                <ele>368.322266</ele>
                <time>2010-03-28T05:29:45Z</time>
            </trkpt>
            <trkpt lon="101.491618" lat="14.599196">
                <ele>369.764282</ele>
                <time>2010-03-28T05:30:25Z</time>
            </trkpt>
            <trkpt lon="101.491408" lat="14.598723">
                <ele>371.686890</ele>
                <time>2010-03-28T05:30:39Z</time>
            </trkpt>
            <trkpt lon="101.491537" lat="14.598765">
                <ele>375.532105</ele>
                <time>2010-03-28T05:31:58Z</time>
            </trkpt>
        </trkseg>
    </trk>
</gpx>